Time;durP1;ratioP1;P1;durP2;ratioP2;P2;SDS_P1;SDS_P2;PMS_P1;PMS_P2;Temp;Humidity;BMP_temperature;BMP_pressure;BME280_temperature;BME280_humidity;BME280_pressure;Samples;Min_cycle;Max_cycle;Signal;HPM_P1;HPM_P2
2022/12/16 00:00:09;;;;;;;;;;;;;;;0.86;100.00;101007.94;5051941;28;19928;-80
2022/12/16 00:02:34;;;;;;;;;;;;;;;0.87;100.00;101007.00;5053202;28;19924;-79
2022/12/16 00:04:59;;;;;;;;;;;;;;;0.87;100.00;101012.22;5051617;28;19916;-79
2022/12/16 00:07:25;;;;;;;;;;;;;;;0.88;100.00;101009.53;5053867;28;19920;-79
2022/12/16 00:09:50;;;;;;;;;;;;;;;0.93;100.00;101006.69;5051770;28;19973;-79
2022/12/16 00:12:15;;;;;;;;;;;;;;;0.89;100.00;101005.16;5053878;28;19962;-79
2022/12/16 00:14:40;;;;;;;;;;;;;;;0.92;100.00;101005.84;5055728;28;20315;-78
2022/12/16 00:17:06;;;;;;;;;;;;;;;0.93;100.00;101009.28;5058594;28;19920;-79
2022/12/16 00:19:31;;;;;;;;;;;;;;;0.97;100.00;101013.38;5058266;28;19924;-79
2022/12/16 00:21:56;;;;;;;;;;;;;;;0.99;100.00;101019.34;5054928;28;20372;-79
2022/12/16 00:24:21;;;;;;;;;;;;;;;0.99;100.00;101021.94;5040285;28;19928;-79
2022/12/16 00:26:47;;;;;;;;;;;;;;;1.01;100.00;101009.72;5056414;28;19948;-79
2022/12/16 00:29:12;;;;;;;;;;;;;;;1.02;100.00;101009.63;5055405;28;19975;-80
2022/12/16 00:31:37;;;;;;;;;;;;;;;1.03;100.00;101016.50;5056963;28;20023;-79
2022/12/16 00:34:03;;;;;;;;;;;;;;;1.09;100.00;101017.94;5054061;28;19916;-79
2022/12/16 00:36:28;;;;;;;;;;;;;;;1.09;100.00;101012.72;5056400;28;19954;-79
2022/12/16 00:38:53;;;;;;;;;;;;;;;1.12;100.00;101015.16;5057369;28;19920;-80
2022/12/16 00:41:19;;;;;;;;;;;;;;;1.10;100.00;101019.59;5060109;28;19929;-79
2022/12/16 00:43:44;;;;;;;;;;;;;;;1.09;100.00;101020.53;5056980;28;20686;-80
2022/12/16 00:46:09;;;;;;;;;;;;;;;1.11;100.00;101026.47;5056983;28;19924;-80
2022/12/16 00:48:34;;;;;;;;;;;;;;;1.13;100.00;101035.03;5054424;28;19925;-79
2022/12/16 00:51:00;;;;;;;;;;;;;;;1.13;100.00;101028.97;5053747;28;19920;-80
2022/12/16 00:53:25;;;;;;;;;;;;;;;1.16;100.00;101040.06;5053771;28;19920;-79
2022/12/16 00:55:51;;;;;;;;;;;;;;;1.17;100.00;101036.50;5063128;28;19916;-80
2022/12/16 00:58:16;;;;;;;;;;;;;;;1.19;100.00;101039.03;5056058;28;19928;-79
2022/12/16 01:00:41;;;;;;;;;;;;;;;1.19;100.00;101045.06;5055037;28;19931;-79
2022/12/16 01:03:07;;;;;;;;;;;;;;;1.19;100.00;101042.47;5056137;28;20082;-79
2022/12/16 01:05:32;;;;;;;;;;;;;;;1.17;100.00;101041.72;5053928;28;19927;-79
2022/12/16 01:07:57;;;;;;;;;;;;;;;1.16;100.00;101040.06;5056401;28;20439;-79
2022/12/16 01:10:24;;;;;;;;;;;;;;;1.16;100.00;101032.25;5038471;28;19932;-79
2022/12/16 01:12:49;;;;;;;;;;;;;;;1.16;100.00;101034.03;5055985;28;20354;-79
2022/12/16 01:15:15;;;;;;;;;;;;;;;1.17;100.00;101033.91;5056881;28;19920;-80
2022/12/16 01:17:40;;;;;;;;;;;;;;;1.20;100.00;101041.56;5055055;28;19924;-79
2022/12/16 01:20:06;;;;;;;;;;;;;;;1.19;100.00;101042.47;5055002;28;20303;-79
2022/12/16 01:22:32;;;;;;;;;;;;;;;1.19;100.00;101044.25;5053789;28;19917;-79
2022/12/16 01:24:58;;;;;;;;;;;;;;;1.18;100.00;101038.22;5057802;28;19973;-79
2022/12/16 01:27:23;;;;;;;;;;;;;;;1.17;100.00;101039.13;5062021;28;20808;-80
2022/12/16 01:29:49;;;;;;;;;;;;;;;1.16;100.00;101040.06;5048597;28;19925;-78
2022/12/16 01:32:14;;;;;;;;;;;;;;;1.15;100.00;101040.97;5054107;28;19982;-78
2022/12/16 01:34:40;;;;;;;;;;;;;;;1.13;100.00;101040.22;5055677;28;19912;-79
2022/12/16 01:37:05;;;;;;;;;;;;;;;1.08;100.00;101044.81;5056023;28;19925;-79
2022/12/16 01:39:30;;;;;;;;;;;;;;;1.07;100.00;101047.50;5053982;28;20399;-78
2022/12/16 01:41:56;;;;;;;;;;;;;;;1.10;100.00;101049.94;5054566;28;19920;-79
2022/12/16 01:44:23;;;;;;;;;;;;;;;1.10;100.00;101052.56;5054468;28;19920;-78
2022/12/16 01:46:49;;;;;;;;;;;;;;;1.10;100.00;101055.97;5055663;28;19936;-79
2022/12/16 01:49:26;;;;;;;;;;;;;;;1.12;100.00;101054.13;5056171;28;20375;-79
2022/12/16 01:51:53;;;;;;;;;;;;;;;1.16;100.00;101054.81;5055443;28;20954;-79
2022/12/16 01:54:24;;;;;;;;;;;;;;;1.21;100.00;101056.22;5055136;28;19925;-79
2022/12/16 01:56:53;;;;;;;;;;;;;;;1.24;100.00;101050.00;5053807;28;19923;-79
2022/12/16 01:59:20;;;;;;;;;;;;;;;1.27;100.00;101051.63;5055091;28;19969;-79
2022/12/16 02:01:45;;;;;;;;;;;;;;;1.25;100.00;101056.06;5035276;28;19924;-79
2022/12/16 02:04:10;;;;;;;;;;;;;;;1.28;100.00;101051.53;5058130;28;19932;-79
2022/12/16 02:06:35;;;;;;;;;;;;;;;1.30;100.00;101060.06;5055949;28;20020;-80
2022/12/16 02:09:04;;;;;;;;;;;;;;;1.30;100.00;101051.44;5053663;28;19920;-79
2022/12/16 02:11:49;;;;;;;;;;;;;;;1.30;100.00;101048.84;5054214;28;20311;-80
2022/12/16 02:14:49;;;;;;;;;;;;;;;1.31;100.00;101053.13;5054075;28;20039;-79
2022/12/16 02:17:22;;;;;;;;;;;;;;;1.33;100.00;101041.72;4993334;28;19949;-79
2022/12/16 02:20:02;;;;;;;;;;;;;;;1.38;100.00;101046.66;4995232;28;20620;-79
2022/12/16 02:22:51;;;;;;;;;;;;;;;1.41;100.00;101049.06;4978074;28;20347;-79
2022/12/16 02:25:19;;;;;;;;;;;;;;;1.38;100.00;101044.06;4994933;28;20321;-79
2022/12/16 02:27:50;;;;;;;;;;;;;;;1.35;100.00;101042.47;4975432;28;19976;-79
2022/12/16 02:30:23;;;;;;;;;;;;;;;1.36;100.00;101040.72;4992505;28;20015;-79
2022/12/16 02:32:49;;;;;;;;;;;;;;;1.41;100.00;101036.06;4993344;28;19921;-79
2022/12/16 02:35:23;;;;;;;;;;;;;;;1.42;100.00;101037.78;4996671;28;20447;-79
2022/12/16 02:38:18;;;;;;;;;;;;;;;1.38;100.00;101034.50;4977934;28;19971;-79
2022/12/16 02:40:52;;;;;;;;;;;;;;;1.36;100.00;101035.50;4989463;28;19988;-78
2022/12/16 02:43:26;;;;;;;;;;;;;;;1.44;100.00;101043.72;4992861;28;20132;-79
2022/12/16 02:45:51;;;;;;;;;;;;;;;1.43;100.00;101042.03;4993319;28;19921;-79
2022/12/16 02:48:17;;;;;;;;;;;;;;;1.40;100.00;101047.41;4994176;28;19932;-79
2022/12/16 02:50:52;;;;;;;;;;;;;;;1.45;100.00;101047.97;5008319;28;20020;-78
2022/12/16 02:53:18;;;;;;;;;;;;;;;1.46;100.00;101046.22;5057522;28;19928;-79
2022/12/16 02:55:59;;;;;;;;;;;;;;;1.45;100.00;101050.59;5056580;28;19926;-80
2022/12/16 02:58:44;;;;;;;;;;;;;;;1.44;100.00;101056.72;5055087;28;19984;-78
2022/12/16 03:01:32;;;;;;;;;;;;;;;1.47;100.00;101058.31;5054484;28;19924;-79
2022/12/16 03:04:02;;;;;;;;;;;;;;;1.47;100.00;101061.75;5025799;28;19977;-78
2022/12/16 03:06:30;;;;;;;;;;;;;;;1.48;100.00;101059.97;5059071;28;19912;-79
2022/12/16 03:08:58;;;;;;;;;;;;;;;1.44;100.00;101067.97;5054334;28;19920;-78
2022/12/16 03:11:26;;;;;;;;;;;;;;;1.47;100.00;101077.34;5054808;28;19920;-78
2022/12/16 03:13:53;;;;;;;;;;;;;;;1.49;100.00;101082.47;5056409;28;19959;-78
2022/12/16 03:16:20;;;;;;;;;;;;;;;1.47;100.00;101081.72;5057349;28;20452;-78
2022/12/16 03:18:49;;;;;;;;;;;;;;;1.45;100.00;101092.19;5057379;28;20322;-79
2022/12/16 03:21:15;;;;;;;;;;;;;;;1.39;100.00;101098.59;5058378;28;19923;-78
2022/12/16 03:23:44;;;;;;;;;;;;;;;1.33;100.00;101098.94;5056381;28;19912;-77
2022/12/16 03:26:11;;;;;;;;;;;;;;;1.30;100.00;101098.25;5057922;28;20046;-79
2022/12/16 03:28:42;;;;;;;;;;;;;;;1.19;100.00;101104.88;5054847;28;19915;-79
2022/12/16 03:31:14;;;;;;;;;;;;;;;1.21;100.00;101105.63;5053047;28;19920;-79
2022/12/16 03:34:02;;;;;;;;;;;;;;;1.16;100.00;101105.03;5053107;28;20454;-78
2022/12/16 03:36:29;;;;;;;;;;;;;;;1.12;100.00;101115.69;5053034;28;19919;-79
2022/12/16 03:38:55;;;;;;;;;;;;;;;1.12;100.00;101126.94;5053219;28;20656;-79
2022/12/16 03:41:22;;;;;;;;;;;;;;;1.09;100.00;101126.25;5052323;28;19924;-79
2022/12/16 03:43:48;;;;;;;;;;;;;;;1.05;100.00;101129.94;5051669;28;19920;-79
2022/12/16 03:46:15;;;;;;;;;;;;;;;1.00;100.00;101143.16;5051706;28;20376;-79
2022/12/16 03:48:45;;;;;;;;;;;;;;;0.96;100.00;101145.09;5050148;28;19931;-79
2022/12/16 03:51:10;;;;;;;;;;;;;;;0.87;100.00;101139.53;5057411;28;19916;-78
2022/12/16 03:53:35;;;;;;;;;;;;;;;0.90;100.00;101152.38;5055269;28;20400;-78
2022/12/16 03:56:01;;;;;;;;;;;;;;;0.87;100.00;101153.38;5057521;28;20423;-78
2022/12/16 03:58:26;;;;;;;;;;;;;;;0.88;100.00;101156.81;5055530;28;20092;-79
2022/12/16 04:00:51;;;;;;;;;;;;;;;0.84;100.00;101153.53;5057570;28;19928;-78
2022/12/16 04:03:16;;;;;;;;;;;;;;;0.80;100.00;101165.00;5056582;28;19916;-78
2022/12/16 04:05:44;;;;;;;;;;;;;;;0.70;100.00;101166.41;5038801;28;19931;-78
2022/12/16 04:08:09;;;;;;;;;;;;;;;0.64;100.00;101167.56;5057152;28;19913;-78
2022/12/16 04:24:19;;;;;;;;;;;;;;;0.63;100.00;101199.63;5055166;28;20053;-78
2022/12/16 04:29:29;;;;;;;;;;;;;;;0.53;100.00;101203.63;5056599;28;19989;-79
2022/12/16 04:31:54;;;;;;;;;;;;;;;0.52;100.00;101210.59;5057470;28;19917;-79
2022/12/16 04:34:27;;;;;;;;;;;;;;;0.44;100.00;101214.47;5058339;28;19962;-79
